sensor_id;sensor_type;location;lat;lon;timestamp;temperature;humidity
37910;DHT22;23741;49.446;8.754;2023-07-22T00:00:28;20.60;57.50
37910;DHT22;23741;49.446;8.754;2023-07-22T00:02:30;20.60;57.50
37910;DHT22;23741;49.446;8.754;2023-07-22T00:04:32;20.60;57.50
37910;DHT22;23741;49.446;8.754;2023-07-22T00:06:34;20.60;57.70
37910;DHT22;23741;49.446;8.754;2023-07-22T00:08:37;20.60;57.80
37910;DHT22;23741;49.446;8.754;2023-07-22T00:10:42;20.60;57.80
37910;DHT22;23741;49.446;8.754;2023-07-22T00:12:44;20.60;58.00
37910;DHT22;23741;49.446;8.754;2023-07-22T00:14:46;20.60;57.90
37910;DHT22;23741;49.446;8.754;2023-07-22T00:16:48;20.70;58.00
37910;DHT22;23741;49.446;8.754;2023-07-22T00:18:50;20.60;57.90
37910;DHT22;23741;49.446;8.754;2023-07-22T00:20:52;20.60;58.00
37910;DHT22;23741;49.446;8.754;2023-07-22T00:22:53;20.60;58.10
37910;DHT22;23741;49.446;8.754;2023-07-22T00:24:55;20.60;58.10
37910;DHT22;23741;49.446;8.754;2023-07-22T00:26:57;20.60;58.10
37910;DHT22;23741;49.446;8.754;2023-07-22T00:28:59;20.50;58.10
37910;DHT22;23741;49.446;8.754;2023-07-22T00:31:02;20.50;57.80
37910;DHT22;23741;49.446;8.754;2023-07-22T00:33:04;20.50;58.00
37910;DHT22;23741;49.446;8.754;2023-07-22T00:35:07;20.50;58.10
37910;DHT22;23741;49.446;8.754;2023-07-22T00:37:11;20.50;58.10
37910;DHT22;23741;49.446;8.754;2023-07-22T00:39:13;20.50;58.30
37910;DHT22;23741;49.446;8.754;2023-07-22T00:41:18;20.50;58.30
37910;DHT22;23741;49.446;8.754;2023-07-22T00:43:19;20.50;58.40
37910;DHT22;23741;49.446;8.754;2023-07-22T00:45:21;20.50;58.30
37910;DHT22;23741;49.446;8.754;2023-07-22T00:47:23;20.50;58.30
37910;DHT22;23741;49.446;8.754;2023-07-22T00:49:26;20.50;58.10
37910;DHT22;23741;49.446;8.754;2023-07-22T00:51:28;20.50;58.00
37910;DHT22;23741;49.446;8.754;2023-07-22T00:53:30;20.50;58.00
37910;DHT22;23741;49.446;8.754;2023-07-22T00:55:33;20.60;58.00
37910;DHT22;23741;49.446;8.754;2023-07-22T00:57:36;20.50;58.20
37910;DHT22;23741;49.446;8.754;2023-07-22T00:59:39;20.40;58.20
37910;DHT22;23741;49.446;8.754;2023-07-22T01:01:42;20.50;58.30
37910;DHT22;23741;49.446;8.754;2023-07-22T01:03:44;20.40;58.10
37910;DHT22;23741;49.446;8.754;2023-07-22T01:05:48;20.50;58.30
37910;DHT22;23741;49.446;8.754;2023-07-22T01:07:51;20.50;58.40
37910;DHT22;23741;49.446;8.754;2023-07-22T01:09:56;20.50;58.50
37910;DHT22;23741;49.446;8.754;2023-07-22T01:12:01;20.50;58.60
37910;DHT22;23741;49.446;8.754;2023-07-22T01:14:03;20.40;58.40
37910;DHT22;23741;49.446;8.754;2023-07-22T01:16:06;20.50;58.40
37910;DHT22;23741;49.446;8.754;2023-07-22T01:18:08;20.50;58.20
37910;DHT22;23741;49.446;8.754;2023-07-22T01:20:11;20.50;58.30
37910;DHT22;23741;49.446;8.754;2023-07-22T01:22:13;20.40;58.40
37910;DHT22;23741;49.446;8.754;2023-07-22T01:24:15;20.40;58.30
37910;DHT22;23741;49.446;8.754;2023-07-22T01:26:19;20.40;58.50
37910;DHT22;23741;49.446;8.754;2023-07-22T01:28:21;20.40;58.60
37910;DHT22;23741;49.446;8.754;2023-07-22T01:30:23;20.40;58.50
37910;DHT22;23741;49.446;8.754;2023-07-22T01:32:27;20.50;58.40
37910;DHT22;23741;49.446;8.754;2023-07-22T01:34:28;20.40;58.40
37910;DHT22;23741;49.446;8.754;2023-07-22T01:36:31;20.40;59.00
37910;DHT22;23741;49.446;8.754;2023-07-22T01:38:34;20.40;58.30
37910;DHT22;23741;49.446;8.754;2023-07-22T01:40:37;20.40;58.50
37910;DHT22;23741;49.446;8.754;2023-07-22T01:42:40;20.40;58.60
37910;DHT22;23741;49.446;8.754;2023-07-22T01:44:42;20.30;58.60
37910;DHT22;23741;49.446;8.754;2023-07-22T01:46:44;20.40;58.80
37910;DHT22;23741;49.446;8.754;2023-07-22T01:48:46;20.30;58.70
37910;DHT22;23741;49.446;8.754;2023-07-22T01:50:48;20.30;58.70
37910;DHT22;23741;49.446;8.754;2023-07-22T01:52:50;20.40;58.80
37910;DHT22;23741;49.446;8.754;2023-07-22T01:54:52;20.30;58.70
37910;DHT22;23741;49.446;8.754;2023-07-22T01:56:53;20.30;58.80
37910;DHT22;23741;49.446;8.754;2023-07-22T01:58:56;20.30;59.00
37910;DHT22;23741;49.446;8.754;2023-07-22T02:00:58;20.30;58.80
37910;DHT22;23741;49.446;8.754;2023-07-22T02:03:00;20.20;58.90
37910;DHT22;23741;49.446;8.754;2023-07-22T02:05:02;20.30;59.00
37910;DHT22;23741;49.446;8.754;2023-07-22T02:07:05;20.20;59.00
37910;DHT22;23741;49.446;8.754;2023-07-22T02:09:07;20.20;59.10
37910;DHT22;23741;49.446;8.754;2023-07-22T02:11:12;20.20;59.10
37910;DHT22;23741;49.446;8.754;2023-07-22T02:13:14;20.20;59.30
37910;DHT22;23741;49.446;8.754;2023-07-22T02:15:17;20.20;59.30
37910;DHT22;23741;49.446;8.754;2023-07-22T02:17:19;20.30;59.40
37910;DHT22;23741;49.446;8.754;2023-07-22T02:19:22;20.20;59.30
37910;DHT22;23741;49.446;8.754;2023-07-22T02:21:25;20.20;59.30
37910;DHT22;23741;49.446;8.754;2023-07-22T02:23:26;20.20;59.20
37910;DHT22;23741;49.446;8.754;2023-07-22T02:25:28;20.20;59.30
37910;DHT22;23741;49.446;8.754;2023-07-22T02:27:30;20.20;59.20
37910;DHT22;23741;49.446;8.754;2023-07-22T02:29:32;20.20;59.00
37910;DHT22;23741;49.446;8.754;2023-07-22T02:31:34;20.20;59.20
37910;DHT22;23741;49.446;8.754;2023-07-22T02:33:36;20.20;59.20
37910;DHT22;23741;49.446;8.754;2023-07-22T02:35:37;20.20;59.10
37910;DHT22;23741;49.446;8.754;2023-07-22T02:37:40;20.20;59.20
37910;DHT22;23741;49.446;8.754;2023-07-22T02:39:42;20.20;59.30
37910;DHT22;23741;49.446;8.754;2023-07-22T02:41:44;20.20;59.40
37910;DHT22;23741;49.446;8.754;2023-07-22T02:43:46;20.20;59.50
37910;DHT22;23741;49.446;8.754;2023-07-22T02:45:48;20.20;59.50
37910;DHT22;23741;49.446;8.754;2023-07-22T02:47:50;20.20;59.50
37910;DHT22;23741;49.446;8.754;2023-07-22T02:49:52;20.20;59.50
37910;DHT22;23741;49.446;8.754;2023-07-22T02:51:54;20.20;59.50
37910;DHT22;23741;49.446;8.754;2023-07-22T02:53:55;20.20;59.50
37910;DHT22;23741;49.446;8.754;2023-07-22T02:55:57;20.20;59.70
37910;DHT22;23741;49.446;8.754;2023-07-22T02:57:59;20.20;59.80
37910;DHT22;23741;49.446;8.754;2023-07-22T03:00:01;20.20;59.90
37910;DHT22;23741;49.446;8.754;2023-07-22T03:02:08;20.20;59.90
37910;DHT22;23741;49.446;8.754;2023-07-22T03:04:10;20.20;60.20
37910;DHT22;23741;49.446;8.754;2023-07-22T03:06:14;20.20;60.20
37910;DHT22;23741;49.446;8.754;2023-07-22T03:08:16;20.20;60.50
37910;DHT22;23741;49.446;8.754;2023-07-22T03:10:19;20.20;60.70
37910;DHT22;23741;49.446;8.754;2023-07-22T03:12:21;20.20;60.80
37910;DHT22;23741;49.446;8.754;2023-07-22T03:14:23;20.20;60.60
37910;DHT22;23741;49.446;8.754;2023-07-22T03:16:25;20.20;60.70
37910;DHT22;23741;49.446;8.754;2023-07-22T03:18:28;20.20;60.80
37910;DHT22;23741;49.446;8.754;2023-07-22T03:20:30;20.20;61.00
37910;DHT22;23741;49.446;8.754;2023-07-22T03:22:33;20.20;61.20
37910;DHT22;23741;49.446;8.754;2023-07-22T03:24:35;20.20;61.40
37910;DHT22;23741;49.446;8.754;2023-07-22T03:26:37;20.20;61.50
37910;DHT22;23741;49.446;8.754;2023-07-22T03:28:38;20.20;61.70
37910;DHT22;23741;49.446;8.754;2023-07-22T03:30:42;20.20;62.10
37910;DHT22;23741;49.446;8.754;2023-07-22T03:32:45;20.20;62.20
37910;DHT22;23741;49.446;8.754;2023-07-22T03:34:49;20.20;62.40
37910;DHT22;23741;49.446;8.754;2023-07-22T03:36:51;20.10;62.30
37910;DHT22;23741;49.446;8.754;2023-07-22T03:38:53;20.10;62.30
37910;DHT22;23741;49.446;8.754;2023-07-22T03:40:54;20.10;62.40
37910;DHT22;23741;49.446;8.754;2023-07-22T03:42:57;20.10;62.60
37910;DHT22;23741;49.446;8.754;2023-07-22T03:44:59;20.10;62.80
37910;DHT22;23741;49.446;8.754;2023-07-22T03:47:01;20.20;63.00
37910;DHT22;23741;49.446;8.754;2023-07-22T03:49:03;20.10;62.40
37910;DHT22;23741;49.446;8.754;2023-07-22T03:51:04;20.10;62.60
37910;DHT22;23741;49.446;8.754;2023-07-22T03:53:20;20.10;62.90
37910;DHT22;23741;49.446;8.754;2023-07-22T03:55:22;20.00;63.00
37910;DHT22;23741;49.446;8.754;2023-07-22T03:57:27;20.00;63.30
37910;DHT22;23741;49.446;8.754;2023-07-22T03:59:29;20.00;63.40
37910;DHT22;23741;49.446;8.754;2023-07-22T04:01:31;20.00;63.20
37910;DHT22;23741;49.446;8.754;2023-07-22T04:03:33;20.00;63.40
37910;DHT22;23741;49.446;8.754;2023-07-22T04:05:35;20.00;63.40
37910;DHT22;23741;49.446;8.754;2023-07-22T04:07:37;20.00;63.50
37910;DHT22;23741;49.446;8.754;2023-07-22T04:09:40;20.00;63.70
37910;DHT22;23741;49.446;8.754;2023-07-22T04:11:42;20.00;63.70
37910;DHT22;23741;49.446;8.754;2023-07-22T04:13:43;20.00;63.50
37910;DHT22;23741;49.446;8.754;2023-07-22T04:15:46;20.00;63.40
37910;DHT22;23741;49.446;8.754;2023-07-22T04:17:48;20.00;63.60
37910;DHT22;23741;49.446;8.754;2023-07-22T04:19:53;20.00;63.80
37910;DHT22;23741;49.446;8.754;2023-07-22T04:21:55;20.00;64.80
37910;DHT22;23741;49.446;8.754;2023-07-22T04:23:57;20.00;63.80
37910;DHT22;23741;49.446;8.754;2023-07-22T04:26:02;20.00;63.80
37910;DHT22;23741;49.446;8.754;2023-07-22T04:28:06;20.00;63.90
37910;DHT22;23741;49.446;8.754;2023-07-22T04:30:09;20.00;64.00
37910;DHT22;23741;49.446;8.754;2023-07-22T04:32:11;20.00;64.20
37910;DHT22;23741;49.446;8.754;2023-07-22T04:34:13;19.90;64.20
37910;DHT22;23741;49.446;8.754;2023-07-22T04:36:15;19.90;64.30
37910;DHT22;23741;49.446;8.754;2023-07-22T04:38:16;20.00;64.50
37910;DHT22;23741;49.446;8.754;2023-07-22T04:40:19;19.90;64.40
37910;DHT22;23741;49.446;8.754;2023-07-22T04:42:21;19.90;64.40
37910;DHT22;23741;49.446;8.754;2023-07-22T04:44:22;19.90;64.50
37910;DHT22;23741;49.446;8.754;2023-07-22T04:46:25;19.90;64.60
37910;DHT22;23741;49.446;8.754;2023-07-22T04:48:29;20.00;64.80
37910;DHT22;23741;49.446;8.754;2023-07-22T04:50:31;19.90;64.20
37910;DHT22;23741;49.446;8.754;2023-07-22T04:52:32;20.00;64.60
37910;DHT22;23741;49.446;8.754;2023-07-22T04:54:34;19.90;64.00
37910;DHT22;23741;49.446;8.754;2023-07-22T04:56:36;19.90;64.30
37910;DHT22;23741;49.446;8.754;2023-07-22T04:58:38;19.90;64.70
37910;DHT22;23741;49.446;8.754;2023-07-22T05:00:40;19.90;64.70
37910;DHT22;23741;49.446;8.754;2023-07-22T05:02:44;19.90;64.80
37910;DHT22;23741;49.446;8.754;2023-07-22T05:04:47;19.90;65.00
37910;DHT22;23741;49.446;8.754;2023-07-22T05:06:49;19.90;65.10
37910;DHT22;23741;49.446;8.754;2023-07-22T05:08:50;19.90;65.20
37910;DHT22;23741;49.446;8.754;2023-07-22T05:10:52;19.90;65.20
37910;DHT22;23741;49.446;8.754;2023-07-22T05:12:55;19.90;65.30
37910;DHT22;23741;49.446;8.754;2023-07-22T05:14:58;19.90;65.30
37910;DHT22;23741;49.446;8.754;2023-07-22T05:17:00;19.90;65.30
37910;DHT22;23741;49.446;8.754;2023-07-22T05:19:02;19.90;65.40
37910;DHT22;23741;49.446;8.754;2023-07-22T05:21:06;19.90;65.50
37910;DHT22;23741;49.446;8.754;2023-07-22T05:23:08;19.90;65.70
37910;DHT22;23741;49.446;8.754;2023-07-22T05:25:10;19.90;65.60
37910;DHT22;23741;49.446;8.754;2023-07-22T05:27:11;19.90;65.70
37910;DHT22;23741;49.446;8.754;2023-07-22T05:29:13;19.90;65.70
37910;DHT22;23741;49.446;8.754;2023-07-22T05:31:16;19.90;65.70
37910;DHT22;23741;49.446;8.754;2023-07-22T05:33:18;19.90;65.70
37910;DHT22;23741;49.446;8.754;2023-07-22T05:35:20;19.90;65.80
37910;DHT22;23741;49.446;8.754;2023-07-22T05:37:23;19.90;65.80
37910;DHT22;23741;49.446;8.754;2023-07-22T05:39:24;19.90;65.70
37910;DHT22;23741;49.446;8.754;2023-07-22T05:41:26;19.90;65.80
37910;DHT22;23741;49.446;8.754;2023-07-22T05:43:28;19.90;66.00
37910;DHT22;23741;49.446;8.754;2023-07-22T05:45:30;19.90;65.90
37910;DHT22;23741;49.446;8.754;2023-07-22T05:47:33;19.90;66.00
37910;DHT22;23741;49.446;8.754;2023-07-22T05:49:35;19.90;66.00
37910;DHT22;23741;49.446;8.754;2023-07-22T05:51:40;19.90;66.00
37910;DHT22;23741;49.446;8.754;2023-07-22T05:53:44;20.00;66.20
37910;DHT22;23741;49.446;8.754;2023-07-22T05:55:46;20.00;66.40
37910;DHT22;23741;49.446;8.754;2023-07-22T05:57:48;20.00;66.50
37910;DHT22;23741;49.446;8.754;2023-07-22T05:59:50;20.00;66.50
37910;DHT22;23741;49.446;8.754;2023-07-22T06:02:13;20.00;66.40
37910;DHT22;23741;49.446;8.754;2023-07-22T06:04:21;20.10;66.40
37910;DHT22;23741;49.446;8.754;2023-07-22T06:06:23;20.10;66.70
37910;DHT22;23741;49.446;8.754;2023-07-22T06:08:25;20.10;66.30
37910;DHT22;23741;49.446;8.754;2023-07-22T06:10:27;20.10;67.30
37910;DHT22;23741;49.446;8.754;2023-07-22T06:12:29;20.10;66.50
37910;DHT22;23741;49.446;8.754;2023-07-22T06:14:31;20.20;66.60
37910;DHT22;23741;49.446;8.754;2023-07-22T06:16:33;20.20;66.70
37910;DHT22;23741;49.446;8.754;2023-07-22T06:18:35;20.20;66.80
37910;DHT22;23741;49.446;8.754;2023-07-22T06:20:36;20.30;66.80
37910;DHT22;23741;49.446;8.754;2023-07-22T06:22:39;20.30;67.00
37910;DHT22;23741;49.446;8.754;2023-07-22T06:24:42;20.30;66.70
37910;DHT22;23741;49.446;8.754;2023-07-22T06:26:44;20.30;66.40
37910;DHT22;23741;49.446;8.754;2023-07-22T06:28:45;20.30;66.40
37910;DHT22;23741;49.446;8.754;2023-07-22T06:30:47;20.40;66.50
37910;DHT22;23741;49.446;8.754;2023-07-22T06:32:49;20.40;66.50
37910;DHT22;23741;49.446;8.754;2023-07-22T06:34:51;20.40;66.50
37910;DHT22;23741;49.446;8.754;2023-07-22T06:36:53;20.40;66.50
37910;DHT22;23741;49.446;8.754;2023-07-22T06:38:54;20.50;66.60
37910;DHT22;23741;49.446;8.754;2023-07-22T06:40:56;20.50;66.60
37910;DHT22;23741;49.446;8.754;2023-07-22T06:42:59;20.50;66.30
37910;DHT22;23741;49.446;8.754;2023-07-22T06:45:01;20.60;66.10
37910;DHT22;23741;49.446;8.754;2023-07-22T06:47:03;20.60;66.20
37910;DHT22;23741;49.446;8.754;2023-07-22T06:49:04;20.60;66.20
37910;DHT22;23741;49.446;8.754;2023-07-22T06:51:07;20.70;66.30
37910;DHT22;23741;49.446;8.754;2023-07-22T06:53:09;20.70;66.50
37910;DHT22;23741;49.446;8.754;2023-07-22T06:55:12;20.70;66.50
37910;DHT22;23741;49.446;8.754;2023-07-22T06:57:15;20.70;66.10
37910;DHT22;23741;49.446;8.754;2023-07-22T06:59:17;20.70;66.30
37910;DHT22;23741;49.446;8.754;2023-07-22T07:01:19;20.70;66.30
37910;DHT22;23741;49.446;8.754;2023-07-22T07:03:22;20.80;66.40
37910;DHT22;23741;49.446;8.754;2023-07-22T07:05:24;20.80;66.40
37910;DHT22;23741;49.446;8.754;2023-07-22T07:07:28;20.90;66.60
37910;DHT22;23741;49.446;8.754;2023-07-22T07:09:30;20.80;66.40
37910;DHT22;23741;49.446;8.754;2023-07-22T07:11:32;20.90;66.70
37910;DHT22;23741;49.446;8.754;2023-07-22T07:13:34;20.90;66.60
37910;DHT22;23741;49.446;8.754;2023-07-22T07:15:37;20.90;66.40
37910;DHT22;23741;49.446;8.754;2023-07-22T07:17:39;20.90;66.50
37910;DHT22;23741;49.446;8.754;2023-07-22T07:19:41;21.00;66.40
37910;DHT22;23741;49.446;8.754;2023-07-22T07:21:43;21.00;66.00
37910;DHT22;23741;49.446;8.754;2023-07-22T07:23:45;21.00;66.10
37910;DHT22;23741;49.446;8.754;2023-07-22T07:25:47;21.10;65.90
37910;DHT22;23741;49.446;8.754;2023-07-22T07:27:49;21.10;65.90
37910;DHT22;23741;49.446;8.754;2023-07-22T07:29:51;21.10;65.80
37910;DHT22;23741;49.446;8.754;2023-07-22T07:31:55;21.10;65.80
37910;DHT22;23741;49.446;8.754;2023-07-22T07:33:57;21.10;65.80
37910;DHT22;23741;49.446;8.754;2023-07-22T07:35:59;21.20;65.60
37910;DHT22;23741;49.446;8.754;2023-07-22T07:38:01;21.20;65.60
37910;DHT22;23741;49.446;8.754;2023-07-22T07:40:03;21.20;65.50
37910;DHT22;23741;49.446;8.754;2023-07-22T07:42:06;21.20;65.40
37910;DHT22;23741;49.446;8.754;2023-07-22T07:44:07;21.20;65.30
37910;DHT22;23741;49.446;8.754;2023-07-22T07:48:14;21.20;65.30
37910;DHT22;23741;49.446;8.754;2023-07-22T07:50:16;21.30;65.30
37910;DHT22;23741;49.446;8.754;2023-07-22T07:52:18;21.30;65.30
37910;DHT22;23741;49.446;8.754;2023-07-22T07:54:20;21.30;65.30
37910;DHT22;23741;49.446;8.754;2023-07-22T07:56:23;21.30;65.30
37910;DHT22;23741;49.446;8.754;2023-07-22T07:58:25;21.30;65.30
37910;DHT22;23741;49.446;8.754;2023-07-22T08:00:26;21.30;65.30
37910;DHT22;23741;49.446;8.754;2023-07-22T08:02:28;21.40;65.40
37910;DHT22;23741;49.446;8.754;2023-07-22T08:04:30;21.40;65.20
37910;DHT22;23741;49.446;8.754;2023-07-22T08:06:32;21.40;64.90
37910;DHT22;23741;49.446;8.754;2023-07-22T08:08:35;21.40;64.20
37910;DHT22;23741;49.446;8.754;2023-07-22T08:10:37;21.40;64.30
37910;DHT22;23741;49.446;8.754;2023-07-22T08:12:40;21.40;64.40
37910;DHT22;23741;49.446;8.754;2023-07-22T08:14:42;21.40;64.10
37910;DHT22;23741;49.446;8.754;2023-07-22T08:16:44;21.50;64.20
37910;DHT22;23741;49.446;8.754;2023-07-22T08:18:46;21.50;64.00
37910;DHT22;23741;49.446;8.754;2023-07-22T08:20:49;21.50;64.10
37910;DHT22;23741;49.446;8.754;2023-07-22T08:22:51;21.50;64.30
37910;DHT22;23741;49.446;8.754;2023-07-22T08:24:53;21.50;64.30
37910;DHT22;23741;49.446;8.754;2023-07-22T08:26:57;21.50;64.40
37910;DHT22;23741;49.446;8.754;2023-07-22T08:29:00;21.60;64.50
37910;DHT22;23741;49.446;8.754;2023-07-22T08:31:01;21.60;64.20
37910;DHT22;23741;49.446;8.754;2023-07-22T08:33:03;21.60;64.20
37910;DHT22;23741;49.446;8.754;2023-07-22T08:35:05;21.60;64.20
37910;DHT22;23741;49.446;8.754;2023-07-22T08:37:08;21.70;64.30
37910;DHT22;23741;49.446;8.754;2023-07-22T08:39:10;21.70;64.10
37910;DHT22;23741;49.446;8.754;2023-07-22T08:41:15;21.70;63.90
37910;DHT22;23741;49.446;8.754;2023-07-22T08:43:21;21.80;64.20
37910;DHT22;23741;49.446;8.754;2023-07-22T08:45:25;21.80;64.20
37910;DHT22;23741;49.446;8.754;2023-07-22T08:47:31;21.80;63.90
37910;DHT22;23741;49.446;8.754;2023-07-22T08:49:34;21.80;63.80
37910;DHT22;23741;49.446;8.754;2023-07-22T08:51:37;21.90;63.80
37910;DHT22;23741;49.446;8.754;2023-07-22T08:53:39;21.90;63.70
37910;DHT22;23741;49.446;8.754;2023-07-22T08:55:42;21.90;63.80
37910;DHT22;23741;49.446;8.754;2023-07-22T08:57:45;21.90;63.80
37910;DHT22;23741;49.446;8.754;2023-07-22T08:59:48;21.90;63.70
37910;DHT22;23741;49.446;8.754;2023-07-22T09:01:51;21.90;63.40
37910;DHT22;23741;49.446;8.754;2023-07-22T09:03:54;22.00;63.40
37910;DHT22;23741;49.446;8.754;2023-07-22T09:05:58;22.10;63.30
37910;DHT22;23741;49.446;8.754;2023-07-22T09:08:06;22.10;63.20
37910;DHT22;23741;49.446;8.754;2023-07-22T09:10:09;22.10;63.10
37910;DHT22;23741;49.446;8.754;2023-07-22T09:12:12;22.10;63.00
37910;DHT22;23741;49.446;8.754;2023-07-22T09:14:15;22.20;62.90
37910;DHT22;23741;49.446;8.754;2023-07-22T09:16:36;22.30;62.60
37910;DHT22;23741;49.446;8.754;2023-07-22T09:18:38;22.30;62.70
37910;DHT22;23741;49.446;8.754;2023-07-22T09:20:40;22.30;62.30
37910;DHT22;23741;49.446;8.754;2023-07-22T09:22:45;22.40;63.30
37910;DHT22;23741;49.446;8.754;2023-07-22T09:25:19;22.40;62.50
37910;DHT22;23741;49.446;8.754;2023-07-22T09:27:33;22.40;61.70
37910;DHT22;23741;49.446;8.754;2023-07-22T09:29:39;22.50;61.70
37910;DHT22;23741;49.446;8.754;2023-07-22T09:31:50;22.50;61.90
37910;DHT22;23741;49.446;8.754;2023-07-22T09:33:52;22.60;61.10
37910;DHT22;23741;49.446;8.754;2023-07-22T09:35:57;22.60;60.10
37910;DHT22;23741;49.446;8.754;2023-07-22T09:37:59;22.70;59.50
37910;DHT22;23741;49.446;8.754;2023-07-22T09:40:01;22.80;59.20
37910;DHT22;23741;49.446;8.754;2023-07-22T09:42:03;22.80;58.90
37910;DHT22;23741;49.446;8.754;2023-07-22T09:44:09;22.90;58.70
37910;DHT22;23741;49.446;8.754;2023-07-22T09:46:12;22.90;57.70
37910;DHT22;23741;49.446;8.754;2023-07-22T09:48:27;23.00;58.20
37910;DHT22;23741;49.446;8.754;2023-07-22T09:50:29;23.00;58.30
37910;DHT22;23741;49.446;8.754;2023-07-22T09:52:31;23.10;58.00
37910;DHT22;23741;49.446;8.754;2023-07-22T09:54:33;23.10;57.80
37910;DHT22;23741;49.446;8.754;2023-07-22T09:56:46;23.20;57.80
37910;DHT22;23741;49.446;8.754;2023-07-22T09:58:48;23.20;56.60
37910;DHT22;23741;49.446;8.754;2023-07-22T10:00:50;23.20;57.00
37910;DHT22;23741;49.446;8.754;2023-07-22T10:02:53;23.20;57.10
37910;DHT22;23741;49.446;8.754;2023-07-22T10:04:58;23.30;57.50
37910;DHT22;23741;49.446;8.754;2023-07-22T10:07:01;23.40;56.90
37910;DHT22;23741;49.446;8.754;2023-07-22T10:09:04;23.40;56.50
37910;DHT22;23741;49.446;8.754;2023-07-22T10:11:10;23.50;56.70
37910;DHT22;23741;49.446;8.754;2023-07-22T10:13:13;23.50;56.60
37910;DHT22;23741;49.446;8.754;2023-07-22T10:15:16;23.60;56.80
37910;DHT22;23741;49.446;8.754;2023-07-22T10:17:21;23.60;56.80
37910;DHT22;23741;49.446;8.754;2023-07-22T10:19:24;23.70;56.80
37910;DHT22;23741;49.446;8.754;2023-07-22T10:21:28;23.70;56.40
37910;DHT22;23741;49.446;8.754;2023-07-22T10:23:32;23.80;56.20
37910;DHT22;23741;49.446;8.754;2023-07-22T10:25:35;23.90;55.90
37910;DHT22;23741;49.446;8.754;2023-07-22T10:27:39;23.90;55.50
37910;DHT22;23741;49.446;8.754;2023-07-22T10:29:45;24.00;55.00
37910;DHT22;23741;49.446;8.754;2023-07-22T10:31:47;24.00;55.60
37910;DHT22;23741;49.446;8.754;2023-07-22T10:33:56;24.10;54.60
37910;DHT22;23741;49.446;8.754;2023-07-22T10:36:14;24.10;54.30
37910;DHT22;23741;49.446;8.754;2023-07-22T10:38:17;24.20;53.70
37910;DHT22;23741;49.446;8.754;2023-07-22T10:40:26;24.20;53.80
37910;DHT22;23741;49.446;8.754;2023-07-22T10:42:31;24.30;53.70
37910;DHT22;23741;49.446;8.754;2023-07-22T10:44:37;24.40;52.80
37910;DHT22;23741;49.446;8.754;2023-07-22T10:46:40;24.40;52.30
37910;DHT22;23741;49.446;8.754;2023-07-22T10:48:45;24.50;53.10
37910;DHT22;23741;49.446;8.754;2023-07-22T10:50:51;24.60;52.60
37910;DHT22;23741;49.446;8.754;2023-07-22T10:53:01;24.70;51.90
37910;DHT22;23741;49.446;8.754;2023-07-22T10:55:03;24.70;50.80
37910;DHT22;23741;49.446;8.754;2023-07-22T10:59:26;24.90;51.60
37910;DHT22;23741;49.446;8.754;2023-07-22T11:01:48;24.90;51.90
37910;DHT22;23741;49.446;8.754;2023-07-22T11:06:22;24.90;50.40
37910;DHT22;23741;49.446;8.754;2023-07-22T11:08:40;25.00;50.10
37910;DHT22;23741;49.446;8.754;2023-07-22T11:15:05;25.00;49.70
37910;DHT22;23741;49.446;8.754;2023-07-22T11:17:15;25.00;49.30
37910;DHT22;23741;49.446;8.754;2023-07-22T11:20:09;25.00;49.60
37910;DHT22;23741;49.446;8.754;2023-07-22T11:22:11;25.00;49.40
37910;DHT22;23741;49.446;8.754;2023-07-22T11:24:13;25.00;49.50
37910;DHT22;23741;49.446;8.754;2023-07-22T11:26:15;25.00;49.30
37910;DHT22;23741;49.446;8.754;2023-07-22T11:28:17;25.10;50.00
37910;DHT22;23741;49.446;8.754;2023-07-22T11:30:19;25.10;49.20
37910;DHT22;23741;49.446;8.754;2023-07-22T11:32:33;25.10;48.90
37910;DHT22;23741;49.446;8.754;2023-07-22T11:34:39;25.10;49.10
37910;DHT22;23741;49.446;8.754;2023-07-22T11:36:42;25.10;48.90
37910;DHT22;23741;49.446;8.754;2023-07-22T11:38:44;25.20;49.10
37910;DHT22;23741;49.446;8.754;2023-07-22T11:40:46;25.20;49.10
37910;DHT22;23741;49.446;8.754;2023-07-22T11:42:49;25.20;48.90
37910;DHT22;23741;49.446;8.754;2023-07-22T11:44:52;25.40;48.70
37910;DHT22;23741;49.446;8.754;2023-07-22T11:47:00;25.40;48.70
37910;DHT22;23741;49.446;8.754;2023-07-22T11:49:02;25.50;48.30
37910;DHT22;23741;49.446;8.754;2023-07-22T11:51:07;25.60;48.70
37910;DHT22;23741;49.446;8.754;2023-07-22T11:53:09;25.70;47.80
37910;DHT22;23741;49.446;8.754;2023-07-22T11:55:11;25.80;47.70
37910;DHT22;23741;49.446;8.754;2023-07-22T11:57:24;25.80;47.60
37910;DHT22;23741;49.446;8.754;2023-07-22T11:59:33;25.90;47.50
37910;DHT22;23741;49.446;8.754;2023-07-22T12:01:35;26.00;47.30
37910;DHT22;23741;49.446;8.754;2023-07-22T12:03:37;26.10;48.10
37910;DHT22;23741;49.446;8.754;2023-07-22T12:05:39;26.10;47.40
37910;DHT22;23741;49.446;8.754;2023-07-22T12:07:41;26.20;47.60
37910;DHT22;23741;49.446;8.754;2023-07-22T12:09:48;26.30;47.50
37910;DHT22;23741;49.446;8.754;2023-07-22T12:11:55;26.30;46.90
37910;DHT22;23741;49.446;8.754;2023-07-22T12:14:10;26.30;46.20
37910;DHT22;23741;49.446;8.754;2023-07-22T12:16:22;26.40;46.00
37910;DHT22;23741;49.446;8.754;2023-07-22T12:18:28;26.40;45.70
37910;DHT22;23741;49.446;8.754;2023-07-22T12:20:31;26.30;46.10
37910;DHT22;23741;49.446;8.754;2023-07-22T12:22:34;26.30;46.00
37910;DHT22;23741;49.446;8.754;2023-07-22T12:24:36;26.30;46.70
37910;DHT22;23741;49.446;8.754;2023-07-22T12:26:38;26.30;46.80
37910;DHT22;23741;49.446;8.754;2023-07-22T12:28:40;26.40;47.30
37910;DHT22;23741;49.446;8.754;2023-07-22T12:30:41;26.40;46.90
37910;DHT22;23741;49.446;8.754;2023-07-22T12:32:43;26.40;47.00
37910;DHT22;23741;49.446;8.754;2023-07-22T12:34:45;26.50;46.90
37910;DHT22;23741;49.446;8.754;2023-07-22T12:36:47;26.50;47.80
37910;DHT22;23741;49.446;8.754;2023-07-22T12:38:49;26.60;47.60
37910;DHT22;23741;49.446;8.754;2023-07-22T12:40:50;26.60;47.20
37910;DHT22;23741;49.446;8.754;2023-07-22T12:42:52;26.60;47.10
37910;DHT22;23741;49.446;8.754;2023-07-22T12:44:54;26.70;47.40
37910;DHT22;23741;49.446;8.754;2023-07-22T12:46:56;26.80;47.30
37910;DHT22;23741;49.446;8.754;2023-07-22T12:48:58;26.90;47.30
37910;DHT22;23741;49.446;8.754;2023-07-22T12:51:00;26.90;47.00
37910;DHT22;23741;49.446;8.754;2023-07-22T12:53:02;26.90;47.50
37910;DHT22;23741;49.446;8.754;2023-07-22T12:55:05;27.00;47.80
37910;DHT22;23741;49.446;8.754;2023-07-22T12:57:07;27.10;47.50
37910;DHT22;23741;49.446;8.754;2023-07-22T12:59:09;27.20;46.90
37910;DHT22;23741;49.446;8.754;2023-07-22T13:01:10;27.30;46.90
37910;DHT22;23741;49.446;8.754;2023-07-22T13:03:12;27.30;45.90
37910;DHT22;23741;49.446;8.754;2023-07-22T13:05:14;27.30;46.10
37910;DHT22;23741;49.446;8.754;2023-07-22T13:07:16;27.40;45.70
37910;DHT22;23741;49.446;8.754;2023-07-22T13:09:19;27.40;45.10